Aérodrome :
LOGIN :

S'inscrire | Disclaimer

   EN    FR    IT 

 










Légende :    VFR   VFR Marginal   IFR   IFR Intensif   IFR Très Intensif
Visi : 
Plafond : 
>= 8 km
>= 3000ft
5 à 8 km
1000 à 3000 ft
1500m à 5 km
500 à 1000 ft
800 à 1500m
200 à 500 ft
< 800m
< 200 ft
Symboles :   Orages  Brouillard  Fortes neiges  Fortes précipitations  Vent > 20 kt
SIGMETs :   Divers  Orages  Givrage  Turbulence  Onde Orograph.  Cendres Volcan.







- Altitude de l'aérodrome : 468 ft
- Code IATA : GRO


LEGE - Girona Costa Brava

DERNIER METAR :
  • 221400Z 19010KT CAVOK 10/M02 Q1008

METARs EXPIRÉS :
  • 221330Z 20008KT CAVOK 11/00 Q1008
  • 221300Z 22006KT 190V270 CAVOK 10/02 Q1009
  • 221230Z 22005KT 170V260 CAVOK 09/02 Q1010
  • 221200Z 21003KT 190V250 CAVOK 07/03 Q1011
  • 221130Z 15001KT CAVOK 08/03 Q1011

TAF TAF LEGE
Valide du 22 à 12h jusqu'au 23 à 12h UTC


221100Z 2212/2312 18010KT 9999 FEW030 TX12/2213Z TN00/2307Z
BECMG 2216/2218 VRB04KT
PROB30
TEMPO 2222/2301 3000 BR
TEMPO 2308/2312 4000 RA BKN025
Pas de NOTAMs connus pour ce terrain.
3 SIGMETs publiés pour la FIR Barcelona (LECB) :
 
Onde orographique forte
LECB SIGMET 7 VALID 221300/221700 LEVA
LECB BARCELONA FIR/UIR SEV MTW FCST WI N3830 W00130 - N39 W00030 - N3840 W00010 - N38 W00130 - N3830 W00130 SFC/FL360 STNR NC=
Onde orographique forte
LECB SIGMET 6 VALID 221300/221700 LEVA
LECB BARCELONA FIR/UIR SEV MTW FCST WI N4010 W00130 - N4110 E00020 - N41 E001 - N4010 W00050 - N4010 W00130 SFC/FL360 STNR NC=
Onde orographique forte
LECB SIGMET 5 VALID 221300/221700 LEVA
LECB BARCELONA FIR/UIR SEV MTW FCST N OF LINE N4230 W00010 - N4230 E00110 FL060/360 STNR NC=



MET'MAP, la Météo Aéronautique d'un coup d'oeil ! - Copyright ORBIFLY Décembre 2007 - Disclaimer

ORBIFLY MET'MAP TEAM :

Programmation & Développement : Alexandra Zaïnal
Conception & Développement : Baudouin d'Aumeries
Co-Programmation & Développement : Marc-Olivier Méhu
Soutien technique & logistique : Manuel Goepfert

Contact : metmap@orbifly.com




SOURCES & CREDITS :

   NOAA